createdAt,value
2023-08-07T00:02:01.187Z,78.29
2023-08-07T00:04:27.957Z,78.05
2023-08-07T00:06:54.705Z,78.53
2023-08-07T00:09:21.422Z,78.38
2023-08-07T00:11:48.159Z,78.52
2023-08-07T00:14:14.944Z,78.43
2023-08-07T00:16:42.566Z,78.14
2023-08-07T00:19:09.384Z,78.38
2023-08-07T00:21:36.894Z,78.52
2023-08-07T00:24:03.823Z,78.19
2023-08-07T00:26:30.768Z,78.32
2023-08-07T00:28:57.521Z,78.52
2023-08-07T00:31:24.318Z,78.90
2023-08-07T00:33:54.944Z,78.99
2023-08-07T00:36:21.637Z,78.72
2023-08-07T00:38:48.327Z,78.76
2023-08-07T00:41:18.302Z,78.75
2023-08-07T00:43:45.088Z,78.72
2023-08-07T00:46:11.844Z,78.60
2023-08-07T00:48:38.668Z,79.28
2023-08-07T00:51:06.105Z,79.33
2023-08-07T00:53:32.901Z,79.02
2023-08-07T00:55:59.740Z,79.14
2023-08-07T00:58:26.772Z,79.71
2023-08-07T01:00:53.590Z,79.62
2023-08-07T01:03:20.439Z,79.39
2023-08-07T01:05:47.238Z,79.05
2023-08-07T01:08:14.274Z,78.74
2023-08-07T01:11:13.242Z,79.05
2023-08-07T01:14:17.329Z,78.77
2023-08-07T01:16:52.022Z,78.69
2023-08-07T01:19:28.060Z,79.26
2023-08-07T01:22:13.350Z,78.48
2023-08-07T01:24:41.522Z,78.49
2023-08-07T01:27:28.857Z,77.78
2023-08-07T01:30:34.098Z,77.80
2023-08-07T01:33:19.475Z,77.81
2023-08-07T01:35:48.761Z,78.23
2023-08-07T01:38:15.867Z,77.34
2023-08-07T01:40:43.144Z,77.95
2023-08-07T01:43:09.830Z,77.58
2023-08-07T01:45:36.779Z,77.74
2023-08-07T01:48:03.902Z,77.80
2023-08-07T01:50:31.071Z,78.36
2023-08-07T01:52:58.917Z,78.86
2023-08-07T01:55:25.635Z,78.99
2023-08-07T01:57:53.139Z,77.73
2023-08-07T02:00:20.612Z,77.85
2023-08-07T02:02:48.149Z,77.26
2023-08-07T02:05:15.737Z,77.32
2023-08-07T02:07:42.814Z,77.63
2023-08-07T02:10:10.083Z,77.46
2023-08-07T02:12:36.951Z,77.63
2023-08-07T02:15:04.088Z,77.60
2023-08-07T02:17:32.066Z,77.28
2023-08-07T02:19:59.184Z,77.31
2023-08-07T02:22:26.052Z,77.19
2023-08-07T02:24:52.773Z,77.42
2023-08-07T02:27:19.502Z,77.57
2023-08-07T02:29:47.621Z,77.34
2023-08-07T02:32:14.392Z,77.10
2023-08-07T02:34:41.225Z,77.04
2023-08-07T02:37:07.988Z,77.21
2023-08-07T02:39:34.803Z,76.89
2023-08-07T02:42:01.693Z,76.67
2023-08-07T02:44:28.484Z,76.63
2023-08-07T02:46:55.438Z,76.55
2023-08-07T02:49:22.796Z,77.05
2023-08-07T02:51:49.582Z,77.08
2023-08-07T02:54:16.315Z,76.72
2023-08-07T02:56:43.161Z,76.78
2023-08-07T02:59:10.027Z,77.16
2023-08-07T03:01:36.739Z,76.43
2023-08-07T03:04:03.668Z,76.43
2023-08-07T03:06:30.431Z,76.31
2023-08-07T03:08:57.174Z,76.46
2023-08-07T03:11:23.901Z,76.42
2023-08-07T03:13:50.642Z,76.56
2023-08-07T03:16:17.542Z,76.59
2023-08-07T03:18:44.471Z,76.87
2023-08-07T03:21:11.209Z,76.12
2023-08-07T03:23:37.971Z,76.36
2023-08-07T03:28:42.133Z,76.36
2023-08-07T03:31:09.395Z,76.35
2023-08-07T03:33:37.554Z,76.14
2023-08-07T03:36:05.110Z,76.26
2023-08-07T03:38:33.080Z,76.45
2023-08-07T03:41:00.391Z,76.45
2023-08-07T03:43:28.543Z,76.44
2023-08-07T03:46:02.137Z,76.30
2023-08-07T03:48:30.971Z,75.58
2023-08-07T03:51:11.837Z,75.95
2023-08-07T03:53:45.093Z,76.07
2023-08-07T03:56:11.831Z,76.64
2023-08-07T03:58:38.684Z,76.48
2023-08-07T04:01:06.506Z,76.03
2023-08-07T04:03:33.455Z,75.81
2023-08-07T04:06:02.847Z,75.43
2023-08-07T04:08:29.636Z,75.57
2023-08-07T04:11:04.070Z,75.78
2023-08-07T04:13:32.128Z,76.00
2023-08-07T04:15:59.551Z,75.88
2023-08-07T04:18:26.758Z,75.90
2023-08-07T04:20:57.106Z,76.42
2023-08-07T04:23:24.348Z,76.46
2023-08-07T04:25:52.976Z,76.22
2023-08-07T04:28:19.928Z,76.36
2023-08-07T04:30:51.046Z,76.49
2023-08-07T04:33:17.861Z,76.38
2023-08-07T04:35:44.673Z,76.52
2023-08-07T04:38:11.468Z,76.26
2023-08-07T04:40:38.945Z,76.42
2023-08-07T04:43:05.659Z,76.27
2023-08-07T04:45:32.323Z,76.09
2023-08-07T04:47:59.203Z,76.57
2023-08-07T04:50:25.902Z,76.42
2023-08-07T04:52:52.618Z,76.46
2023-08-07T04:55:19.384Z,76.78
2023-08-07T04:57:47.557Z,76.23
2023-08-07T05:00:14.753Z,76.81
2023-08-07T05:02:41.682Z,77.14
2023-08-07T05:05:10.143Z,77.16
2023-08-07T05:07:36.918Z,77.20
2023-08-07T05:10:03.881Z,77.38
2023-08-07T05:12:30.664Z,77.27
2023-08-07T05:14:57.415Z,77.12
2023-08-07T05:17:24.240Z,76.93
2023-08-07T05:19:50.994Z,77.64
2023-08-07T05:22:17.755Z,77.16
2023-08-07T05:24:45.948Z,77.63
2023-08-07T05:27:12.808Z,77.62
2023-08-07T05:29:44.999Z,77.17
2023-08-07T05:32:16.028Z,77.32
2023-08-07T05:34:42.925Z,77.68
2023-08-07T05:37:09.705Z,77.72
2023-08-07T05:39:36.941Z,77.65
2023-08-07T05:42:04.091Z,77.69
2023-08-07T05:44:31.043Z,78.09
2023-08-07T05:46:57.880Z,77.73
2023-08-07T05:49:26.232Z,78.12
2023-08-07T05:51:54.401Z,77.90
2023-08-07T05:54:21.699Z,78.19
2023-08-07T05:56:48.634Z,78.01
2023-08-07T05:59:16.293Z,78.41
2023-08-07T06:01:43.109Z,78.39
2023-08-07T06:04:10.222Z,78.57
2023-08-07T06:06:37.349Z,78.54
2023-08-07T06:09:04.992Z,78.66
2023-08-07T06:11:32.130Z,78.80
2023-08-07T06:13:59.069Z,78.65
2023-08-07T06:16:25.956Z,78.30
2023-08-07T06:18:53.152Z,78.38
2023-08-07T06:21:21.061Z,78.15
2023-08-07T06:23:48.040Z,78.30
2023-08-07T06:26:14.799Z,78.64
2023-08-07T06:28:42.751Z,78.07
2023-08-07T06:31:10.742Z,78.40
2023-08-07T06:33:38.118Z,78.56
2023-08-07T06:36:05.260Z,78.13
2023-08-07T06:38:32.287Z,78.31
2023-08-07T06:40:59.209Z,78.44
2023-08-07T06:43:26.232Z,78.20
2023-08-07T06:45:54.436Z,78.24
2023-08-07T06:48:21.221Z,77.62
2023-08-07T06:50:48.869Z,77.98
2023-08-07T06:53:15.728Z,77.97
2023-08-07T06:55:42.915Z,77.70
2023-08-07T06:58:10.043Z,77.30
2023-08-07T07:00:37.491Z,78.08
2023-08-07T07:03:05.012Z,77.89
2023-08-07T07:05:31.960Z,77.84
2023-08-07T07:07:59.033Z,78.15
2023-08-07T07:10:25.889Z,78.50
2023-08-07T07:12:53.344Z,78.28
2023-08-07T07:15:20.130Z,78.23
2023-08-07T07:17:46.959Z,78.27
2023-08-07T07:20:13.924Z,78.22
2023-08-07T07:22:40.715Z,78.26
2023-08-07T07:25:08.053Z,78.06
2023-08-07T07:27:34.886Z,77.88
2023-08-07T07:30:01.758Z,78.17
2023-08-07T07:32:30.746Z,78.16
2023-08-07T07:34:57.652Z,78.33
2023-08-07T07:37:24.438Z,78.30
2023-08-07T07:39:51.152Z,78.00
2023-08-07T07:42:17.984Z,77.67
2023-08-07T07:44:44.685Z,77.93
2023-08-07T07:47:14.053Z,78.57
2023-08-07T07:49:48.824Z,77.64
2023-08-07T07:52:15.840Z,77.22
2023-08-07T07:54:43.011Z,77.47
2023-08-07T07:57:09.747Z,77.38
2023-08-07T07:59:36.570Z,77.18
2023-08-07T08:02:03.433Z,77.15
2023-08-07T08:04:30.547Z,79.01
2023-08-07T08:06:57.461Z,77.87
2023-08-07T08:09:24.281Z,77.35
2023-08-07T08:11:51.110Z,77.31
2023-08-07T08:14:17.894Z,76.39
2023-08-07T08:16:44.588Z,76.64
2023-08-07T08:19:11.428Z,76.93
2023-08-07T08:21:38.232Z,76.96
2023-08-07T08:24:05.536Z,76.61
2023-08-07T08:26:32.471Z,76.81
2023-08-07T08:28:59.203Z,76.17
2023-08-07T08:31:26.331Z,75.94
2023-08-07T08:33:53.104Z,76.45
2023-08-07T08:36:19.963Z,76.70
2023-08-07T08:38:49.131Z,77.05
2023-08-07T08:41:16.372Z,77.25
2023-08-07T08:43:44.230Z,77.41
2023-08-07T08:46:13.024Z,77.68
2023-08-07T08:48:40.297Z,77.49
2023-08-07T08:51:07.455Z,77.20
2023-08-07T08:53:34.841Z,77.18
2023-08-07T08:56:02.995Z,77.23
2023-08-07T08:58:29.976Z,77.48
2023-08-07T09:00:56.913Z,77.38
2023-08-07T09:03:25.013Z,77.82
2023-08-07T09:05:54.624Z,77.08
2023-08-07T09:08:22.893Z,77.55
2023-08-07T09:10:49.937Z,77.57
2023-08-07T09:13:19.360Z,77.22
2023-08-07T09:15:51.521Z,77.55
2023-08-07T09:18:20.233Z,77.70
2023-08-07T09:20:47.086Z,76.59
2023-08-07T09:23:14.089Z,77.05
2023-08-07T09:25:40.848Z,76.85
2023-08-07T09:28:07.847Z,75.90
2023-08-07T09:30:36.991Z,76.26
2023-08-07T09:33:04.189Z,77.11
2023-08-07T09:35:34.861Z,77.30
2023-08-07T09:38:02.563Z,75.97
2023-08-07T09:40:30.585Z,75.75
2023-08-07T09:42:57.449Z,76.29
2023-08-07T09:45:25.663Z,76.19
2023-08-07T09:48:01.472Z,75.70
2023-08-07T09:50:29.128Z,75.61
2023-08-07T09:52:56.857Z,75.74
2023-08-07T09:55:23.850Z,74.01
2023-08-07T09:57:51.254Z,74.22
2023-08-07T10:00:21.215Z,74.64
2023-08-07T10:02:49.698Z,74.93
2023-08-07T10:05:17.744Z,73.78
2023-08-07T10:07:44.667Z,73.91
2023-08-07T10:10:11.728Z,73.82
2023-08-07T10:12:39.645Z,73.79
2023-08-07T10:15:07.508Z,73.29
2023-08-07T10:17:34.915Z,72.05
2023-08-07T10:20:01.962Z,70.96
2023-08-07T10:22:32.276Z,72.04
2023-08-07T10:25:02.583Z,72.76
2023-08-07T10:27:32.030Z,72.75
2023-08-07T10:30:00.257Z,73.30
2023-08-07T10:32:29.036Z,73.47
2023-08-07T10:34:56.899Z,72.79
2023-08-07T10:37:43.557Z,71.48
2023-08-07T10:40:12.179Z,71.77
2023-08-07T10:43:18.222Z,70.45
2023-08-07T10:45:45.061Z,72.15
2023-08-07T10:48:13.334Z,71.47
2023-08-07T10:51:00.931Z,71.33
2023-08-07T10:53:37.947Z,69.57
2023-08-07T10:56:05.936Z,70.74
2023-08-07T10:58:37.077Z,71.62
2023-08-07T11:01:40.677Z,70.81
2023-08-07T11:04:11.134Z,71.37
2023-08-07T11:06:38.801Z,72.46
2023-08-07T11:09:07.315Z,72.55
2023-08-07T11:11:42.378Z,71.22
2023-08-07T11:14:13.997Z,70.94
2023-08-07T11:16:41.202Z,70.60
2023-08-07T11:19:09.380Z,70.92
2023-08-07T11:21:36.981Z,71.33
2023-08-07T11:24:04.161Z,71.03
2023-08-07T11:26:31.124Z,71.36
2023-08-07T11:28:58.435Z,71.45
2023-08-07T11:31:26.471Z,72.58
2023-08-07T11:33:54.145Z,72.43
2023-08-07T11:36:20.980Z,73.26
2023-08-07T11:38:48.085Z,73.72
2023-08-07T11:41:18.094Z,74.07
2023-08-07T11:43:45.323Z,74.89
2023-08-07T11:46:13.703Z,75.42
2023-08-07T11:48:42.012Z,76.00
2023-08-07T11:51:09.321Z,76.37
2023-08-07T11:53:37.856Z,76.97
2023-08-07T11:56:15.191Z,78.36
2023-08-07T11:58:43.973Z,78.89
2023-08-07T12:01:15.465Z,78.68
2023-08-07T12:04:08.305Z,79.41
2023-08-07T12:06:36.531Z,78.55
2023-08-07T12:09:03.859Z,78.91
2023-08-07T12:11:31.064Z,78.13
2023-08-07T12:14:00.933Z,78.90
2023-08-07T12:16:27.926Z,79.60
2023-08-07T12:18:54.737Z,79.70
2023-08-07T12:21:26.655Z,80.05
2023-08-07T12:23:56.646Z,80.03
2023-08-07T12:26:23.679Z,80.44
2023-08-07T12:28:50.999Z,80.68
2023-08-07T12:31:18.728Z,79.96
2023-08-07T12:33:45.736Z,80.07
2023-08-07T12:38:44.255Z,80.33
2023-08-07T12:41:44.747Z,80.58
2023-08-07T12:43:57.786Z,80.83
2023-08-07T12:48:54.216Z,80.56
2023-08-07T12:51:20.908Z,80.78
2023-08-07T12:53:48.512Z,80.42
2023-08-07T12:56:15.417Z,79.96
2023-08-07T12:58:42.794Z,79.92
2023-08-07T13:01:10.931Z,80.33
2023-08-07T13:03:37.737Z,80.30
2023-08-07T13:06:07.576Z,79.95
2023-08-07T13:08:35.861Z,79.88
2023-08-07T13:11:03.017Z,80.30
2023-08-07T13:13:29.720Z,80.44
2023-08-07T13:15:56.507Z,79.77
2023-08-07T13:18:23.522Z,79.73
2023-08-07T13:20:50.225Z,79.85
2023-08-07T13:23:16.985Z,78.73
2023-08-07T13:25:43.790Z,78.43
2023-08-07T13:28:10.623Z,77.85
2023-08-07T13:30:37.885Z,78.73
2023-08-07T13:33:05.212Z,78.25
2023-08-07T13:35:33.771Z,78.32
2023-08-07T13:38:00.876Z,78.36
2023-08-07T13:40:27.597Z,78.14
2023-08-07T13:42:54.460Z,77.28
2023-08-07T13:45:21.663Z,77.97
2023-08-07T13:47:48.626Z,77.81
2023-08-07T13:50:16.032Z,78.31
2023-08-07T13:52:42.742Z,78.87
2023-08-07T13:55:10.448Z,78.94
2023-08-07T13:57:37.692Z,77.40
2023-08-07T14:00:05.290Z,77.06
2023-08-07T14:02:34.323Z,77.01
2023-08-07T14:05:01.090Z,77.45
2023-08-07T14:07:27.858Z,77.78
2023-08-07T14:09:54.670Z,77.98
2023-08-07T14:12:21.683Z,77.60
2023-08-07T14:14:48.566Z,77.01
2023-08-07T14:17:15.450Z,77.13
2023-08-07T14:19:42.323Z,76.39
2023-08-07T14:22:09.304Z,75.58
2023-08-07T14:24:36.128Z,76.02
2023-08-07T14:27:03.123Z,76.25
2023-08-07T14:29:29.924Z,75.51
2023-08-07T14:31:56.876Z,75.39
2023-08-07T14:34:23.734Z,75.79
2023-08-07T14:36:50.601Z,75.13
2023-08-07T14:39:17.603Z,75.60
2023-08-07T14:41:44.419Z,75.16
2023-08-07T14:44:11.140Z,75.17
2023-08-07T14:46:39.440Z,74.91
2023-08-07T14:49:06.277Z,74.96
2023-08-07T14:51:33.009Z,74.49
2023-08-07T14:53:59.953Z,74.31
2023-08-07T14:56:26.908Z,73.64
2023-08-07T14:58:53.723Z,72.51
2023-08-07T15:01:20.516Z,72.13
2023-08-07T15:03:47.362Z,72.47
2023-08-07T15:06:14.361Z,72.35
2023-08-07T15:08:41.082Z,70.27
2023-08-07T15:11:07.850Z,70.17
2023-08-07T15:13:34.619Z,69.42
2023-08-07T15:16:01.482Z,70.20
2023-08-07T15:18:28.355Z,70.09
2023-08-07T15:20:55.207Z,69.94
2023-08-07T15:23:22.054Z,71.27
2023-08-07T15:25:49.394Z,69.88
2023-08-07T15:28:16.325Z,69.94
2023-08-07T15:30:49.390Z,71.02
2023-08-07T15:33:17.618Z,69.84
2023-08-07T15:35:44.770Z,69.10
2023-08-07T15:38:11.629Z,69.23
2023-08-07T15:40:40.019Z,69.49
2023-08-07T15:43:08.120Z,70.84
2023-08-07T15:45:34.910Z,71.17
2023-08-07T15:48:01.717Z,70.91
2023-08-07T15:50:28.540Z,71.72
2023-08-07T15:52:55.438Z,73.00
2023-08-07T15:55:22.188Z,73.00
2023-08-07T15:57:48.902Z,70.97
2023-08-07T16:00:16.082Z,69.68
2023-08-07T16:02:42.912Z,71.47
2023-08-07T16:05:09.678Z,71.69
2023-08-07T16:07:36.610Z,72.66
2023-08-07T16:10:03.902Z,71.61
2023-08-07T16:12:30.649Z,70.26
2023-08-07T16:15:00.006Z,72.16
2023-08-07T16:17:27.252Z,73.23
2023-08-07T16:19:54.063Z,74.13
2023-08-07T16:22:20.875Z,74.67
2023-08-07T16:24:48.666Z,74.85
2023-08-07T16:27:15.528Z,75.35
2023-08-07T16:29:42.306Z,75.30
2023-08-07T16:32:10.047Z,75.38
2023-08-07T16:34:36.955Z,75.87
2023-08-07T16:37:03.982Z,76.30
2023-08-07T16:39:30.718Z,76.40
2023-08-07T16:41:57.548Z,76.80
2023-08-07T16:44:24.334Z,76.69
2023-08-07T16:46:51.041Z,76.59
2023-08-07T16:49:18.203Z,76.94
2023-08-07T16:51:45.913Z,76.67
2023-08-07T16:54:13.408Z,76.61
2023-08-07T16:56:40.396Z,76.91
2023-08-07T16:59:07.510Z,76.76
2023-08-07T17:01:34.314Z,76.71
2023-08-07T17:04:01.156Z,76.61
2023-08-07T17:06:28.026Z,76.94
2023-08-07T17:08:54.830Z,76.88
2023-08-07T17:11:21.929Z,77.21
2023-08-07T17:13:49.026Z,77.28
2023-08-07T17:16:16.049Z,77.88
2023-08-07T17:18:43.056Z,78.33
2023-08-07T17:21:11.007Z,78.21
2023-08-07T17:23:37.916Z,78.50
2023-08-07T17:26:04.769Z,78.99
2023-08-07T17:28:31.525Z,79.26
2023-08-07T17:30:58.557Z,79.32
2023-08-07T17:33:25.371Z,79.35
2023-08-07T17:35:52.105Z,79.19
2023-08-07T17:38:20.060Z,79.07
2023-08-07T17:40:50.352Z,79.19
2023-08-07T17:43:17.103Z,79.30
2023-08-07T17:45:43.884Z,79.34
2023-08-07T17:48:10.830Z,79.62
2023-08-07T17:50:38.355Z,79.94
2023-08-07T17:53:05.578Z,79.95
2023-08-07T17:55:32.489Z,80.43
2023-08-07T17:57:59.373Z,80.46
2023-08-07T18:00:26.177Z,80.18
2023-08-07T18:02:54.792Z,80.26
2023-08-07T18:05:22.581Z,80.19
2023-08-07T18:07:49.382Z,80.00
2023-08-07T18:10:16.293Z,80.00
2023-08-07T18:12:43.332Z,79.61
2023-08-07T18:15:10.157Z,79.50
2023-08-07T18:17:36.961Z,79.52
2023-08-07T18:20:07.351Z,79.46
2023-08-07T18:22:34.698Z,79.33
2023-08-07T18:25:01.700Z,79.14
2023-08-07T18:27:28.687Z,78.48
2023-08-07T18:29:55.611Z,78.89
2023-08-07T18:32:22.409Z,79.19
2023-08-07T18:34:49.231Z,79.80
2023-08-07T18:37:16.415Z,79.81
2023-08-07T18:39:43.223Z,79.68
2023-08-07T18:42:10.157Z,79.72
2023-08-07T18:44:36.929Z,79.66
2023-08-07T18:47:03.753Z,79.72
2023-08-07T18:49:30.682Z,79.28
2023-08-07T18:51:57.484Z,79.43
2023-08-07T18:54:25.464Z,79.17
2023-08-07T18:56:53.860Z,78.67
2023-08-07T18:59:21.054Z,78.59
2023-08-07T19:01:48.085Z,78.54
2023-08-07T19:04:15.033Z,78.65
2023-08-07T19:06:43.634Z,78.90
2023-08-07T19:09:10.909Z,78.77
2023-08-07T19:11:37.822Z,78.90
2023-08-07T19:14:05.221Z,78.69
2023-08-07T19:16:32.417Z,78.53
2023-08-07T19:18:59.155Z,78.40
2023-08-07T19:21:26.560Z,78.62
2023-08-07T19:23:53.398Z,79.02
2023-08-07T19:26:20.317Z,79.33
2023-08-07T19:28:47.200Z,79.37
2023-08-07T19:31:14.172Z,79.54
2023-08-07T19:33:41.924Z,79.67
2023-08-07T19:36:08.703Z,79.78
2023-08-07T19:38:35.558Z,79.85
2023-08-07T19:41:02.340Z,80.10
2023-08-07T19:43:29.657Z,80.24
2023-08-07T19:45:57.746Z,80.09
2023-08-07T19:48:24.779Z,80.23
2023-08-07T19:50:57.486Z,79.67
2023-08-07T19:53:24.238Z,79.79
2023-08-07T19:55:51.080Z,78.56
2023-08-07T19:58:20.481Z,78.47
2023-08-07T20:00:47.324Z,78.70
2023-08-07T20:03:14.910Z,78.92
2023-08-07T20:05:41.953Z,79.21
2023-08-07T20:08:09.683Z,79.44
2023-08-07T20:10:36.561Z,79.63
2023-08-07T20:13:03.586Z,80.14
2023-08-07T20:15:30.525Z,80.31
2023-08-07T20:17:57.388Z,80.53
2023-08-07T20:20:24.213Z,80.63
2023-08-07T20:22:51.023Z,80.86
2023-08-07T20:25:17.777Z,80.94
2023-08-07T20:27:44.600Z,80.90
2023-08-07T20:30:11.449Z,80.92
2023-08-07T20:32:38.645Z,80.96
2023-08-07T20:35:05.765Z,81.19
2023-08-07T20:37:32.572Z,81.01
2023-08-07T20:39:59.503Z,81.27
2023-08-07T20:42:26.416Z,81.33
2023-08-07T20:44:53.254Z,81.66
2023-08-07T20:47:20.093Z,81.87
2023-08-07T20:49:46.947Z,81.77
2023-08-07T20:52:13.860Z,82.23
2023-08-07T20:54:40.552Z,82.26
2023-08-07T20:57:07.475Z,82.43
2023-08-07T20:59:34.241Z,82.05
2023-08-07T21:02:01.586Z,82.20
2023-08-07T21:04:28.679Z,81.71
2023-08-07T21:06:55.540Z,81.67
2023-08-07T21:09:22.290Z,81.57
2023-08-07T21:11:49.102Z,81.56
2023-08-07T21:14:15.811Z,81.48
2023-08-07T21:16:45.507Z,81.84
2023-08-07T21:19:12.718Z,81.69
2023-08-07T21:21:39.741Z,81.95
2023-08-07T21:24:09.947Z,81.85
2023-08-07T21:26:36.769Z,81.92
2023-08-07T21:29:03.780Z,81.84
2023-08-07T21:31:31.139Z,81.90
2023-08-07T21:33:58.754Z,82.22
2023-08-07T21:36:25.765Z,81.78
2023-08-07T21:38:53.880Z,81.95
2023-08-07T21:41:20.640Z,82.02
2023-08-07T21:43:47.389Z,81.98
2023-08-07T21:46:14.206Z,81.87
2023-08-07T21:48:41.063Z,81.99
2023-08-07T21:51:07.823Z,82.05
2023-08-07T21:53:34.542Z,81.85
2023-08-07T21:56:01.298Z,81.69
2023-08-07T21:58:28.025Z,81.70
2023-08-07T22:00:54.782Z,81.78
2023-08-07T22:03:21.594Z,81.68
2023-08-07T22:05:48.447Z,81.50
2023-08-07T22:08:15.208Z,81.58
2023-08-07T22:10:41.879Z,81.75
2023-08-07T22:13:08.689Z,81.90
2023-08-07T22:15:35.424Z,81.95
2023-08-07T22:18:02.229Z,82.01
2023-08-07T22:20:28.991Z,81.87
2023-08-07T22:22:55.811Z,82.33
2023-08-07T22:25:22.548Z,82.88
2023-08-07T22:27:49.401Z,83.08
2023-08-07T22:30:16.827Z,83.23
2023-08-07T22:32:44.637Z,83.34
2023-08-07T22:35:11.467Z,83.31
2023-08-07T22:37:38.424Z,83.26
2023-08-07T22:40:05.788Z,83.03
2023-08-07T22:42:32.526Z,82.80
2023-08-07T22:44:59.484Z,82.96
2023-08-07T22:47:26.250Z,83.25
2023-08-07T22:49:53.035Z,83.07
2023-08-07T22:52:19.998Z,83.33
2023-08-07T22:54:46.739Z,82.98
2023-08-07T22:57:13.507Z,83.12
2023-08-07T22:59:40.359Z,82.70
2023-08-07T23:02:07.596Z,82.79
2023-08-07T23:04:34.348Z,82.88
2023-08-07T23:07:02.043Z,82.85
2023-08-07T23:09:28.784Z,83.06
2023-08-07T23:11:55.911Z,83.21
2023-08-07T23:14:22.819Z,83.32
2023-08-07T23:16:49.603Z,83.36
2023-08-07T23:19:16.348Z,83.06
2023-08-07T23:21:43.083Z,83.16
2023-08-07T23:24:09.816Z,83.06
2023-08-07T23:26:36.702Z,83.08
2023-08-07T23:29:03.532Z,83.29
2023-08-07T23:31:30.313Z,83.49
2023-08-07T23:33:57.086Z,83.80
2023-08-07T23:36:23.828Z,84.01
2023-08-07T23:38:51.283Z,84.28
2023-08-07T23:41:18.137Z,84.04
2023-08-07T23:43:45.029Z,84.04
2023-08-07T23:46:11.769Z,84.13
2023-08-07T23:48:39.925Z,84.31
2023-08-07T23:51:06.675Z,84.90
2023-08-07T23:53:33.465Z,85.03
2023-08-07T23:56:00.198Z,84.77
2023-08-07T23:58:26.909Z,84.74
